Cantwell, Alaska
Current Conditions -  °F | °C
As of 3:16 PM on Saturday 22 Nov 2014 (Local Time) from PAIN Reporting Station
Clear Clear  
Wind Chill: -10°   Ceiling: Unl
Heat Index:   Visibility: 10mi
Dew Point:   Wind: 10mph
Humidity: 78%   Direction: 360°N
Pressure: 29.23"   Gusts: NA
Location:  63.39°N, 148.95°W
Report Text: PAIN 230016Z AUTO 36009KT 10SM CLR M15/M18 A2923 RMK AO1
Loading
Personal Weather Stations






























Interactive Weather Map New forecast layout! Learn more

10-Day Weather Forecast

Advertisements
Track Severe Weather on mobile